createdAt,value
2022-10-23T00:00:24.237Z,88.10
2022-10-23T00:01:24.120Z,88.10
2022-10-23T00:02:24.156Z,87.90
2022-10-23T00:03:24.074Z,87.90
2022-10-23T00:04:24.065Z,87.90
2022-10-23T00:05:24.057Z,87.90
2022-10-23T00:06:24.065Z,87.90
2022-10-23T00:07:24.098Z,87.79
2022-10-23T00:08:24.016Z,87.69
2022-10-23T00:09:24.016Z,87.69
2022-10-23T00:10:24.003Z,87.79
2022-10-23T00:11:24.016Z,87.79
2022-10-23T00:12:23.979Z,87.69
2022-10-23T00:13:23.968Z,87.59
2022-10-23T00:14:23.960Z,87.59
2022-10-23T00:15:23.948Z,87.63
2022-10-23T00:16:23.949Z,87.73
2022-10-23T00:17:23.929Z,87.63
2022-10-23T00:18:23.909Z,87.43
2022-10-23T00:19:23.908Z,87.43
2022-10-23T00:20:23.890Z,87.53
2022-10-23T00:21:23.909Z,87.43
2022-10-23T00:22:23.870Z,87.43
2022-10-23T00:23:23.870Z,87.32
2022-10-23T00:24:23.850Z,87.32
2022-10-23T00:25:23.849Z,87.32
2022-10-23T00:26:23.842Z,87.23
2022-10-23T00:27:23.821Z,87.32
2022-10-23T00:28:23.821Z,87.23
2022-10-23T00:29:23.823Z,87.23
2022-10-23T00:30:23.790Z,87.32
2022-10-23T00:31:23.803Z,87.32
2022-10-23T00:32:23.792Z,87.32
2022-10-23T00:33:23.763Z,87.37
2022-10-23T00:34:23.746Z,87.37
2022-10-23T00:35:23.744Z,87.37
2022-10-23T00:36:23.746Z,87.37
2022-10-23T00:37:23.724Z,87.26
2022-10-23T00:38:23.706Z,87.26
2022-10-23T00:39:23.696Z,87.37
2022-10-23T00:40:23.676Z,87.37
2022-10-23T00:41:23.697Z,87.16
2022-10-23T00:42:23.670Z,87.26
2022-10-23T00:43:23.666Z,87.37
2022-10-23T00:44:23.637Z,87.47
2022-10-23T00:45:23.637Z,87.57
2022-10-23T00:46:23.646Z,87.57
2022-10-23T00:47:23.618Z,87.26
2022-10-23T00:48:23.600Z,87.06
2022-10-23T00:49:23.596Z,86.96
2022-10-23T00:50:23.577Z,87.26
2022-10-23T00:51:23.589Z,87.47
2022-10-23T00:52:23.557Z,87.57
2022-10-23T00:53:23.550Z,87.67
2022-10-23T00:54:24.655Z,87.77
2022-10-23T00:55:23.531Z,87.77
2022-10-23T00:56:23.541Z,87.77
2022-10-23T00:57:23.549Z,87.77
2022-10-23T00:58:23.492Z,87.57
2022-10-23T00:59:23.490Z,87.47
2022-10-23T01:00:23.493Z,87.16
2022-10-23T01:01:23.594Z,87.16
2022-10-23T01:02:23.486Z,87.26
2022-10-23T01:03:23.452Z,87.30
2022-10-23T01:04:23.434Z,87.10
2022-10-23T01:05:23.424Z,87.30
2022-10-23T01:06:23.434Z,87.41
2022-10-23T01:07:23.406Z,87.51
2022-10-23T01:08:23.386Z,87.61
2022-10-23T01:09:23.385Z,87.61
2022-10-23T01:10:23.367Z,87.51
2022-10-23T01:11:23.385Z,87.61
2022-10-23T01:12:23.346Z,87.61
2022-10-23T01:13:23.344Z,87.61
2022-10-23T01:14:23.328Z,87.51
2022-10-23T01:15:23.331Z,87.41
2022-10-23T01:16:23.326Z,87.61
2022-10-23T01:17:23.298Z,87.71
2022-10-23T01:18:23.299Z,88.12
2022-10-23T01:19:23.285Z,88.12
2022-10-23T01:20:23.269Z,88.02
2022-10-23T01:21:23.279Z,88.02
2022-10-23T01:23:23.239Z,87.92
2022-10-23T01:24:23.239Z,88.02
2022-10-23T01:25:23.221Z,88.12
2022-10-23T01:26:23.219Z,88.32
2022-10-23T01:27:23.201Z,88.22
2022-10-23T01:28:23.180Z,88.22
2022-10-23T01:29:23.182Z,88.22
2022-10-23T01:30:23.163Z,88.43
2022-10-23T01:31:23.184Z,88.53
2022-10-23T01:32:23.132Z,88.43
2022-10-23T01:33:23.144Z,88.32
2022-10-23T01:34:23.123Z,88.43
2022-10-23T01:35:23.115Z,88.22
2022-10-23T01:36:23.113Z,88.22
2022-10-23T01:37:23.095Z,88.12
2022-10-23T01:38:23.074Z,88.12
2022-10-23T01:39:23.075Z,87.71
2022-10-23T01:40:23.056Z,87.71
2022-10-23T01:41:23.074Z,87.61
2022-10-23T01:42:23.042Z,87.61
2022-10-23T01:43:23.034Z,87.51
2022-10-23T01:44:23.016Z,87.51
2022-10-23T01:45:23.010Z,87.10
2022-10-23T01:46:23.019Z,87.10
2022-10-23T01:47:22.993Z,87.10
2022-10-23T01:48:22.977Z,87.20
2022-10-23T01:49:22.969Z,87.24
2022-10-23T01:50:22.948Z,87.24
2022-10-23T01:51:22.969Z,87.00
2022-10-23T01:52:22.929Z,87.04
2022-10-23T01:53:22.921Z,86.94
2022-10-23T01:54:22.910Z,86.83
2022-10-23T01:55:22.908Z,86.63
2022-10-23T01:56:22.919Z,86.94
2022-10-23T01:57:22.892Z,86.94
2022-10-23T01:58:22.870Z,86.94
2022-10-23T01:59:22.864Z,86.94
2022-10-23T02:00:22.852Z,86.83
2022-10-23T02:01:22.955Z,86.83
2022-10-23T02:02:22.885Z,86.94
2022-10-23T02:03:22.824Z,87.04
2022-10-23T02:04:22.810Z,86.94
2022-10-23T02:05:22.802Z,86.83
2022-10-23T02:06:22.804Z,86.53
2022-10-23T02:07:22.781Z,86.53
2022-10-23T02:08:22.764Z,86.53
2022-10-23T02:09:22.762Z,86.63
2022-10-23T02:10:22.743Z,86.77
2022-10-23T02:11:22.755Z,86.57
2022-10-23T02:12:22.757Z,86.67
2022-10-23T02:13:22.716Z,86.67
2022-10-23T02:14:22.707Z,86.67
2022-10-23T02:15:22.696Z,86.57
2022-10-23T02:16:22.707Z,86.47
2022-10-23T02:17:22.677Z,86.36
2022-10-23T02:18:22.659Z,86.06
2022-10-23T02:19:22.659Z,85.86
2022-10-23T02:20:22.640Z,85.86
2022-10-23T02:21:22.667Z,85.96
2022-10-23T02:22:22.618Z,86.06
2022-10-23T02:23:22.611Z,86.26
2022-10-23T02:24:22.599Z,86.26
2022-10-23T02:25:22.590Z,86.36
2022-10-23T02:26:22.590Z,86.36
2022-10-23T02:27:22.572Z,86.57
2022-10-23T02:28:22.559Z,86.57
2022-10-23T02:29:22.558Z,86.26
2022-10-23T02:30:22.531Z,86.16
2022-10-23T02:31:22.542Z,86.06
2022-10-23T02:32:22.518Z,86.30
2022-10-23T02:33:22.509Z,86.30
2022-10-23T02:34:22.492Z,86.30
2022-10-23T02:35:22.503Z,86.51
2022-10-23T02:36:22.492Z,86.51
2022-10-23T02:38:22.454Z,86.61
2022-10-23T02:39:22.452Z,86.61
2022-10-23T02:40:22.426Z,86.61
2022-10-23T02:41:22.446Z,86.61
2022-10-23T02:42:22.405Z,86.71
2022-10-23T02:43:22.405Z,86.82
2022-10-23T02:44:22.387Z,86.71
2022-10-23T02:45:22.385Z,86.91
2022-10-23T02:46:22.405Z,86.91
2022-10-23T02:47:22.368Z,87.02
2022-10-23T02:48:22.354Z,87.23
2022-10-23T02:49:22.338Z,87.23
2022-10-23T02:50:22.326Z,87.32
2022-10-23T02:51:22.327Z,87.43
2022-10-23T02:52:22.299Z,87.53
2022-10-23T02:53:22.301Z,87.70
2022-10-23T02:54:22.282Z,87.70
2022-10-23T02:55:22.277Z,87.70
2022-10-23T02:56:22.278Z,87.70
2022-10-23T02:57:22.258Z,87.70
2022-10-23T02:58:22.273Z,87.59
2022-10-23T02:59:22.231Z,87.70
2022-10-23T03:00:22.219Z,87.70
2022-10-23T03:01:22.269Z,87.79
2022-10-23T03:02:22.354Z,87.70
2022-10-23T03:03:22.191Z,87.70
2022-10-23T03:04:22.181Z,87.70
2022-10-23T03:05:22.171Z,87.79
2022-10-23T03:06:22.175Z,87.79
2022-10-23T03:07:22.150Z,87.79
2022-10-23T03:08:22.133Z,87.70
2022-10-23T03:09:22.133Z,87.70
2022-10-23T03:10:22.122Z,87.90
2022-10-23T03:11:22.124Z,88.00
2022-10-23T03:12:22.093Z,88.00
2022-10-23T03:13:22.083Z,88.00
2022-10-23T03:14:22.078Z,88.00
2022-10-23T03:15:22.059Z,88.20
2022-10-23T03:16:22.076Z,88.31
2022-10-23T03:17:22.036Z,88.61
2022-10-23T03:18:22.026Z,88.82
2022-10-23T03:19:22.016Z,88.92
2022-10-23T03:20:22.006Z,89.23
2022-10-23T03:21:22.015Z,89.32
2022-10-23T03:22:21.987Z,89.43
2022-10-23T03:23:21.977Z,89.43
2022-10-23T03:24:21.975Z,89.43
2022-10-23T03:25:21.958Z,89.43
2022-10-23T03:26:21.966Z,89.43
2022-10-23T03:27:21.993Z,89.53
2022-10-23T03:28:21.927Z,89.63
2022-10-23T03:29:21.910Z,89.73
2022-10-23T03:30:21.908Z,89.94
2022-10-23T03:31:21.907Z,89.84
2022-10-23T03:32:21.887Z,89.94
2022-10-23T03:33:21.870Z,90.14
2022-10-23T03:34:21.862Z,90.25
2022-10-23T03:35:21.852Z,90.45
2022-10-23T03:36:21.853Z,90.66
2022-10-23T03:37:21.822Z,90.75
2022-10-23T03:38:21.822Z,91.16
2022-10-23T03:39:21.804Z,91.16
2022-10-23T03:40:21.810Z,90.96
2022-10-23T03:41:21.826Z,90.96
2022-10-23T03:42:21.777Z,91.37
2022-10-23T03:43:21.767Z,91.52
2022-10-23T03:44:21.760Z,91.52
2022-10-23T03:45:21.744Z,91.61
2022-10-23T03:46:21.753Z,91.52
2022-10-23T03:47:21.755Z,91.41
2022-10-23T03:48:21.715Z,91.52
2022-10-23T03:49:21.695Z,91.52
2022-10-23T03:50:21.706Z,91.52
2022-10-23T03:51:21.707Z,91.00
2022-10-23T03:52:21.758Z,90.80
2022-10-23T03:53:21.659Z,91.11
2022-10-23T03:54:21.647Z,91.00
2022-10-23T03:55:21.636Z,91.11
2022-10-23T03:56:21.648Z,91.11
2022-10-23T03:57:21.619Z,91.11
2022-10-23T03:58:21.617Z,91.11
2022-10-23T03:59:21.599Z,90.80
2022-10-23T04:00:21.608Z,90.80
2022-10-23T04:01:21.614Z,90.80
2022-10-23T04:02:21.661Z,90.59
2022-10-23T04:03:21.550Z,90.49
2022-10-23T04:04:21.548Z,90.49
2022-10-23T04:05:21.552Z,90.19
2022-10-23T04:06:21.528Z,90.08
2022-10-23T04:07:21.538Z,89.88
2022-10-23T04:08:21.513Z,90.08
2022-10-23T04:09:21.492Z,90.08
2022-10-23T04:10:21.503Z,90.08
2022-10-23T04:11:21.473Z,90.08
2022-10-23T04:12:21.464Z,89.98
2022-10-23T04:13:21.453Z,90.08
2022-10-23T04:14:21.441Z,90.19
2022-10-23T04:15:21.454Z,90.19
2022-10-23T04:16:21.425Z,90.08
2022-10-23T04:17:21.482Z,90.29
2022-10-23T04:18:21.417Z,90.19
2022-10-23T04:19:21.396Z,90.08
2022-10-23T04:20:21.380Z,90.08
2022-10-23T04:21:21.376Z,90.08
2022-10-23T04:22:24.695Z,89.78
2022-10-23T04:23:22.347Z,90.08
2022-10-23T04:24:21.337Z,90.02
2022-10-23T04:25:21.340Z,89.72
2022-10-23T04:26:21.347Z,89.92
2022-10-23T04:27:21.326Z,90.33
2022-10-23T04:28:21.295Z,90.53
2022-10-23T04:29:21.279Z,90.43
2022-10-23T04:30:21.280Z,90.53
2022-10-23T04:31:21.300Z,90.53
2022-10-23T04:32:21.252Z,90.33
2022-10-23T04:33:21.251Z,90.12
2022-10-23T04:34:21.232Z,90.43
2022-10-23T04:35:21.213Z,90.43
2022-10-23T04:36:21.249Z,90.53
2022-10-23T04:37:21.191Z,90.64
2022-10-23T04:38:21.189Z,90.64
2022-10-23T04:39:21.171Z,90.53
2022-10-23T04:40:21.163Z,90.33
2022-10-23T04:41:21.183Z,90.33
2022-10-23T04:42:21.204Z,90.23
2022-10-23T04:43:21.143Z,90.23
2022-10-23T04:44:21.124Z,90.23
2022-10-23T04:45:21.111Z,90.23
2022-10-23T04:46:21.137Z,90.23
2022-10-23T04:47:21.084Z,90.02
2022-10-23T04:48:23.420Z,90.02
2022-10-23T04:49:21.065Z,89.92
2022-10-23T04:50:21.066Z,89.61
2022-10-23T04:51:21.062Z,89.41
2022-10-23T04:52:21.036Z,89.72
2022-10-23T04:53:21.026Z,89.92
2022-10-23T04:54:21.046Z,90.27
2022-10-23T04:55:21.003Z,90.58
2022-10-23T04:56:21.017Z,90.78
2022-10-23T04:57:20.990Z,90.78
2022-10-23T04:58:20.978Z,90.68
2022-10-23T04:59:20.972Z,90.99
2022-10-23T05:00:20.958Z,90.78
2022-10-23T05:01:21.081Z,90.68
2022-10-23T05:02:20.940Z,90.99
2022-10-23T05:03:20.919Z,91.09
2022-10-23T05:04:20.910Z,91.09
2022-10-23T05:05:20.898Z,91.09
2022-10-23T05:06:20.909Z,90.99
2022-10-23T05:08:20.878Z,90.88
2022-10-23T05:09:20.852Z,90.99
2022-10-23T05:10:20.851Z,90.99
2022-10-23T05:11:20.869Z,90.88
2022-10-23T05:12:20.839Z,90.99
2022-10-23T05:13:20.815Z,90.68
2022-10-23T05:14:22.801Z,90.58
2022-10-23T05:15:20.795Z,90.68
2022-10-23T05:16:20.815Z,90.58
2022-10-23T05:17:20.773Z,90.68
2022-10-23T05:18:20.774Z,90.58
2022-10-23T05:19:23.460Z,90.47
2022-10-23T05:20:20.744Z,90.27
2022-10-23T05:21:20.747Z,90.06
2022-10-23T05:22:20.736Z,89.97
2022-10-23T05:23:20.706Z,89.86
2022-10-23T05:24:20.697Z,89.56
2022-10-23T05:25:20.688Z,89.56
2022-10-23T05:26:20.697Z,89.35
2022-10-23T05:27:20.664Z,89.25
2022-10-23T05:28:20.669Z,89.25
2022-10-23T05:29:20.650Z,89.35
2022-10-23T05:30:20.636Z,89.45
2022-10-23T05:31:20.666Z,89.56
2022-10-23T05:33:20.600Z,89.65
2022-10-23T05:34:20.597Z,89.45
2022-10-23T05:35:20.580Z,89.56
2022-10-23T05:36:20.590Z,89.56
2022-10-23T05:37:20.561Z,89.45
2022-10-23T05:38:20.551Z,89.25
2022-10-23T05:39:20.491Z,89.25
2022-10-23T05:40:20.536Z,89.25
2022-10-23T05:41:20.541Z,89.45
2022-10-23T05:42:20.510Z,89.45
2022-10-23T05:43:21.243Z,89.56
2022-10-23T05:44:20.493Z,89.56
2022-10-23T05:45:20.429Z,89.70
2022-10-23T05:46:20.425Z,89.59
2022-10-23T05:47:20.403Z,89.70
2022-10-23T05:48:34.432Z,89.80
2022-10-23T05:49:21.383Z,89.80
2022-10-23T05:50:20.374Z,89.65
2022-10-23T05:51:20.374Z,89.56
2022-10-23T05:52:20.352Z,89.56
2022-10-23T05:53:20.337Z,89.35
2022-10-23T05:54:20.326Z,89.15
2022-10-23T05:55:20.316Z,89.04
2022-10-23T05:56:20.327Z,89.04
2022-10-23T05:57:20.289Z,89.04
2022-10-23T05:58:20.290Z,89.15
2022-10-23T05:59:22.887Z,89.15
2022-10-23T06:00:20.268Z,89.04
2022-10-23T06:01:20.324Z,88.94
2022-10-23T06:02:20.270Z,89.04
2022-10-23T06:03:20.227Z,89.04
2022-10-23T06:04:20.238Z,89.04
2022-10-23T06:05:20.209Z,89.15
2022-10-23T06:06:20.219Z,88.94
2022-10-23T06:07:20.189Z,89.04
2022-10-23T06:08:20.190Z,89.15
2022-10-23T06:09:20.167Z,89.35
2022-10-23T06:10:20.159Z,89.35
2022-10-23T06:11:20.191Z,89.35
2022-10-23T06:12:20.139Z,89.35
2022-10-23T06:13:20.123Z,89.35
2022-10-23T06:14:20.111Z,89.25
2022-10-23T06:15:20.106Z,89.25
2022-10-23T06:16:20.112Z,89.04
2022-10-23T06:17:20.095Z,89.04
2022-10-23T06:18:20.072Z,88.94
2022-10-23T06:19:20.063Z,88.84
2022-10-23T06:20:20.053Z,88.84
2022-10-23T06:21:20.062Z,88.84
2022-10-23T06:23:20.024Z,88.64
2022-10-23T06:24:20.013Z,88.53
2022-10-23T06:25:19.996Z,88.64
2022-10-23T06:26:20.018Z,88.64
2022-10-23T06:27:19.976Z,88.74
2022-10-23T06:28:20.792Z,88.74
2022-10-23T06:29:19.957Z,88.74
2022-10-23T06:30:19.946Z,88.74
2022-10-23T06:31:19.947Z,88.64
2022-10-23T06:32:19.927Z,88.74
2022-10-23T06:33:19.920Z,88.64
2022-10-23T06:34:19.906Z,88.84
2022-10-23T06:35:19.895Z,88.94
2022-10-23T06:36:19.904Z,88.94
2022-10-23T06:37:19.868Z,88.94
2022-10-23T06:38:19.870Z,88.84
2022-10-23T06:39:19.851Z,88.84
2022-10-23T06:40:19.842Z,88.84
2022-10-23T06:41:19.846Z,88.98
2022-10-23T06:42:19.821Z,89.09
2022-10-23T06:43:19.801Z,89.18
2022-10-23T06:44:19.802Z,89.04
2022-10-23T06:45:19.783Z,89.18
2022-10-23T06:46:19.801Z,89.04
2022-10-23T06:47:19.765Z,88.78
2022-10-23T06:48:19.762Z,88.78
2022-10-23T06:49:19.742Z,88.98
2022-10-23T06:50:19.741Z,89.04
2022-10-23T06:51:19.737Z,88.94
2022-10-23T06:52:41.612Z,89.04
2022-10-23T06:53:20.695Z,89.04
2022-10-23T06:54:19.695Z,89.15
2022-10-23T06:55:19.685Z,89.15
2022-10-23T06:56:19.695Z,89.25
2022-10-23T06:57:19.654Z,89.25
2022-10-23T06:58:19.656Z,89.35
2022-10-23T06:59:19.646Z,89.35
2022-10-23T07:00:19.629Z,89.45
2022-10-23T07:01:19.814Z,89.45
2022-10-23T07:02:19.607Z,89.35
2022-10-23T07:03:19.596Z,89.45
2022-10-23T07:04:19.596Z,89.45
2022-10-23T07:05:19.568Z,89.35
2022-10-23T07:06:19.578Z,89.45
2022-10-23T07:07:19.550Z,89.35
2022-10-23T07:08:19.547Z,89.35
2022-10-23T07:09:19.541Z,89.35
2022-10-23T07:10:19.529Z,89.45
2022-10-23T07:11:19.522Z,89.56
2022-10-23T07:12:19.519Z,89.45
2022-10-23T07:13:19.489Z,89.65
2022-10-23T07:14:19.480Z,89.76
2022-10-23T07:15:19.470Z,89.76
2022-10-23T07:16:19.481Z,89.76
2022-10-23T07:17:19.442Z,89.86
2022-10-23T07:18:19.444Z,89.97
2022-10-23T07:19:19.422Z,90.06
2022-10-23T07:20:19.422Z,90.06
2022-10-23T07:21:19.432Z,90.06
2022-10-23T07:22:19.393Z,90.06
2022-10-23T07:23:19.387Z,90.17
2022-10-23T07:24:19.381Z,90.37
2022-10-23T07:25:19.364Z,90.37
2022-10-23T07:26:19.373Z,90.37
2022-10-23T07:27:19.346Z,90.47
2022-10-23T07:28:19.337Z,90.58
2022-10-23T07:29:19.315Z,90.58
2022-10-23T07:30:19.324Z,90.78
2022-10-23T07:31:21.993Z,90.88
2022-10-23T07:32:19.295Z,91.09
2022-10-23T07:33:19.286Z,91.15
2022-10-23T07:34:19.267Z,91.15
2022-10-23T07:35:19.266Z,91.25
2022-10-23T07:36:19.258Z,91.35
2022-10-23T07:37:19.237Z,91.46
2022-10-23T07:38:19.218Z,91.86
2022-10-23T07:39:19.219Z,91.86
2022-10-23T07:40:19.206Z,91.96
2022-10-23T07:41:19.218Z,91.86
2022-10-23T07:42:19.186Z,91.76
2022-10-23T07:43:19.211Z,91.86
2022-10-23T07:44:21.018Z,92.17
2022-10-23T07:45:19.156Z,92.17
2022-10-23T07:46:19.161Z,92.07
2022-10-23T07:47:19.161Z,92.17
2022-10-23T07:48:19.121Z,92.37
2022-10-23T07:49:19.111Z,92.47
2022-10-23T07:50:19.095Z,92.78
2022-10-23T07:51:19.091Z,92.78
2022-10-23T07:52:19.095Z,92.99
2022-10-23T07:53:19.062Z,92.88
2022-10-23T07:54:19.061Z,92.84
2022-10-23T07:55:19.053Z,92.94
2022-10-23T07:56:19.032Z,92.94
2022-10-23T07:57:19.043Z,92.84
2022-10-23T07:58:19.015Z,92.94
2022-10-23T07:59:19.014Z,92.84
2022-10-23T08:00:19.046Z,92.94
2022-10-23T08:01:19.085Z,92.84
2022-10-23T08:02:19.020Z,92.94
2022-10-23T08:03:18.965Z,93.05
2022-10-23T08:04:18.946Z,93.15
2022-10-23T08:05:18.947Z,93.15
2022-10-23T08:06:18.926Z,93.25
2022-10-23T08:07:18.947Z,93.15
2022-10-23T08:08:18.907Z,93.35
2022-10-23T08:09:18.908Z,93.35
2022-10-23T08:10:18.887Z,93.21
2022-10-23T08:11:18.879Z,93.31
2022-10-23T08:12:18.893Z,93.31
2022-10-23T08:13:18.859Z,93.21
2022-10-23T08:14:18.847Z,93.00
2022-10-23T08:15:18.840Z,93.00
2022-10-23T08:16:18.831Z,93.00
2022-10-23T08:17:18.830Z,93.00
2022-10-23T08:18:18.810Z,93.00
2022-10-23T08:19:18.792Z,93.00
2022-10-23T08:20:18.783Z,93.16
2022-10-23T08:21:18.780Z,93.26
2022-10-23T08:22:18.774Z,93.16
2022-10-23T08:23:18.763Z,93.26
2022-10-23T08:24:18.741Z,93.47
2022-10-23T08:25:21.881Z,93.57
2022-10-23T08:26:19.713Z,93.63
2022-10-23T08:27:18.743Z,93.73
2022-10-23T08:28:18.694Z,93.93
2022-10-23T08:29:18.695Z,94.55
2022-10-23T08:30:18.682Z,94.75
2022-10-23T08:31:18.665Z,94.85
2022-10-23T08:32:18.680Z,94.91
2022-10-23T08:33:18.654Z,94.91
2022-10-23T08:34:18.635Z,95.12
2022-10-23T08:35:18.635Z,95.52
2022-10-23T08:36:18.616Z,95.93
2022-10-23T08:37:18.629Z,96.19
2022-10-23T08:38:18.593Z,95.78
2022-10-23T08:39:18.594Z,95.68
2022-10-23T08:40:18.578Z,95.03
2022-10-23T08:41:18.568Z,94.31
2022-10-23T08:42:18.609Z,94.11
2022-10-23T08:43:18.570Z,93.76
2022-10-23T08:44:18.543Z,93.35
2022-10-23T08:45:18.538Z,93.15
2022-10-23T08:46:18.510Z,93.01
2022-10-23T08:47:18.520Z,92.70
2022-10-23T08:48:18.493Z,93.01
2022-10-23T08:49:18.481Z,92.60
2022-10-23T08:50:18.594Z,92.29
2022-10-23T08:51:18.462Z,92.29
2022-10-23T08:52:18.464Z,91.74
2022-10-23T08:53:18.439Z,91.23
2022-10-23T08:54:18.447Z,91.23
2022-10-23T08:55:18.419Z,91.23
2022-10-23T08:56:18.401Z,91.33
2022-10-23T08:57:18.412Z,91.03
2022-10-23T08:58:18.384Z,90.68
2022-10-23T08:59:18.375Z,90.07
2022-10-23T09:00:18.354Z,89.76
2022-10-23T09:01:18.485Z,89.66
2022-10-23T09:02:18.435Z,89.36
2022-10-23T09:03:18.332Z,89.56
2022-10-23T09:04:18.315Z,89.15
2022-10-23T09:05:18.306Z,88.54
2022-10-23T09:06:18.296Z,88.20
2022-10-23T09:07:18.304Z,88.20
2022-10-23T09:08:18.267Z,88.20
2022-10-23T09:09:18.267Z,88.40
2022-10-23T09:10:18.258Z,88.20
2022-10-23T09:11:18.249Z,88.40
2022-10-23T09:12:18.249Z,87.89
2022-10-23T09:13:18.228Z,87.79
2022-10-23T09:14:18.212Z,87.08
2022-10-23T09:15:18.200Z,87.45
2022-10-23T09:16:18.190Z,87.34
2022-10-23T09:17:18.218Z,87.04
2022-10-23T09:18:18.166Z,87.14
2022-10-23T09:19:18.166Z,87.65
2022-10-23T09:20:18.163Z,87.04
2022-10-23T09:21:18.157Z,87.34
2022-10-23T09:22:18.149Z,87.24
2022-10-23T09:23:18.115Z,87.14
2022-10-23T09:24:18.112Z,87.24
2022-10-23T09:25:18.139Z,87.10
2022-10-23T09:26:18.082Z,87.00
2022-10-23T09:27:18.097Z,86.90
2022-10-23T09:28:18.065Z,87.10
2022-10-23T09:29:18.065Z,86.39
2022-10-23T09:30:18.052Z,86.39
2022-10-23T09:31:18.037Z,85.88
2022-10-23T09:32:18.035Z,85.78
2022-10-23T09:33:18.014Z,85.88
2022-10-23T09:34:17.995Z,85.58
2022-10-23T09:35:17.997Z,85.68
2022-10-23T09:36:17.977Z,85.68
2022-10-23T09:37:18.422Z,85.58
2022-10-23T09:38:17.956Z,85.68
2022-10-23T09:39:17.948Z,85.98
2022-10-23T09:40:17.933Z,86.08
2022-10-23T09:41:17.929Z,85.94
2022-10-23T09:42:17.938Z,85.88
2022-10-23T09:43:17.913Z,86.29
2022-10-23T09:44:17.890Z,86.25
2022-10-23T09:45:17.883Z,86.15
2022-10-23T09:46:17.871Z,86.35
2022-10-23T09:47:17.882Z,86.25
2022-10-23T09:48:17.843Z,86.25
2022-10-23T09:49:17.854Z,85.94
2022-10-23T09:50:17.870Z,86.15
2022-10-23T09:51:17.827Z,86.05
2022-10-23T09:52:17.824Z,85.74
2022-10-23T09:53:17.799Z,85.74
2022-10-23T09:54:17.783Z,85.39
2022-10-23T09:55:17.782Z,85.50
2022-10-23T09:56:21.247Z,85.60
2022-10-23T09:57:18.787Z,84.99
2022-10-23T09:58:17.744Z,85.39
2022-10-23T09:59:17.735Z,85.50
2022-10-23T10:00:17.784Z,85.70
2022-10-23T10:01:17.797Z,85.70
2022-10-23T10:02:17.872Z,86.00
2022-10-23T10:03:17.695Z,85.90
2022-10-23T10:04:17.676Z,85.19
2022-10-23T10:05:17.675Z,85.09
2022-10-23T10:06:17.658Z,85.09
2022-10-23T10:07:17.668Z,85.25
2022-10-23T10:08:17.638Z,85.76
2022-10-23T10:09:17.629Z,86.07
2022-10-23T10:10:17.690Z,85.46
2022-10-23T10:11:17.609Z,85.36
2022-10-23T10:12:17.609Z,85.15
2022-10-23T10:13:17.590Z,85.05
2022-10-23T10:14:17.572Z,84.55
2022-10-23T10:15:17.574Z,84.44
2022-10-23T10:16:17.552Z,84.64
2022-10-23T10:17:17.564Z,84.85
2022-10-23T10:18:17.532Z,84.41
2022-10-23T10:19:17.529Z,84.50
2022-10-23T10:20:17.511Z,84.61
2022-10-23T10:21:17.504Z,84.50
2022-10-23T10:22:17.505Z,84.41
2022-10-23T10:23:17.483Z,84.50
2022-10-23T10:24:17.485Z,84.30
2022-10-23T10:25:17.478Z,84.10
2022-10-23T10:26:17.490Z,84.41
2022-10-23T10:27:17.466Z,84.50
2022-10-23T10:28:17.432Z,84.70
2022-10-23T10:29:17.425Z,84.61
2022-10-23T10:30:17.406Z,84.00
2022-10-23T10:31:17.405Z,83.80
2022-10-23T10:32:17.407Z,83.90
2022-10-23T10:33:17.384Z,84.27
2022-10-23T10:34:17.367Z,84.27
2022-10-23T10:35:17.365Z,84.27
2022-10-23T10:36:17.374Z,83.76
2022-10-23T10:37:17.357Z,83.96
2022-10-23T10:38:17.327Z,84.06
2022-10-23T10:39:17.319Z,83.96
2022-10-23T10:40:17.341Z,83.45
2022-10-23T10:41:17.298Z,82.90
2022-10-23T10:42:17.299Z,83.11
2022-10-23T10:43:17.271Z,83.31
2022-10-23T10:44:17.261Z,82.34
2022-10-23T10:45:17.252Z,82.14
2022-10-23T10:46:17.242Z,82.34
2022-10-23T10:47:20.171Z,82.44
2022-10-23T10:48:17.221Z,82.54
2022-10-23T10:49:17.212Z,82.14
2022-10-23T10:50:17.196Z,82.54
2022-10-23T10:51:17.184Z,82.44
2022-10-23T10:52:17.203Z,82.44
2022-10-23T10:53:17.175Z,82.54
2022-10-23T10:54:17.154Z,82.75
2022-10-23T10:55:17.144Z,82.54
2022-10-23T10:56:17.126Z,82.44
2022-10-23T10:57:17.143Z,82.30
2022-10-23T10:58:17.108Z,82.60
2022-10-23T10:59:17.106Z,83.01
2022-10-23T11:00:17.087Z,82.70
2022-10-23T11:01:17.178Z,82.50
2022-10-23T11:02:17.154Z,82.70
2022-10-23T11:03:17.059Z,81.90
2022-10-23T11:04:17.047Z,81.99
2022-10-23T11:05:17.037Z,82.30
2022-10-23T11:06:17.021Z,82.30
2022-10-23T11:07:17.037Z,82.70
2022-10-23T11:08:17.008Z,83.01
2022-10-23T11:09:20.686Z,82.60
2022-10-23T11:10:16.981Z,82.40
2022-10-23T11:11:16.971Z,82.60
2022-10-23T11:12:16.973Z,82.90
2022-10-23T11:13:16.952Z,82.60
2022-10-23T11:14:16.933Z,82.70
2022-10-23T11:15:16.931Z,82.60
2022-10-23T11:16:16.915Z,82.81
2022-10-23T11:17:16.934Z,82.81
2022-10-23T11:18:16.906Z,83.11
2022-10-23T11:19:16.935Z,83.31
2022-10-23T11:20:16.884Z,82.90
2022-10-23T11:21:16.865Z,82.60
2022-10-23T11:22:16.869Z,82.81
2022-10-23T11:23:16.846Z,82.70
2022-10-23T11:24:16.827Z,82.70
2022-10-23T11:25:16.817Z,82.81
2022-10-23T11:26:19.776Z,82.60
2022-10-23T11:27:16.834Z,82.50
2022-10-23T11:28:16.779Z,82.70
2022-10-23T11:29:16.777Z,82.50
2022-10-23T11:30:16.759Z,82.20
2022-10-23T11:31:16.757Z,82.50
2022-10-23T11:32:16.756Z,82.60
2022-10-23T11:33:16.740Z,82.70
2022-10-23T11:34:16.757Z,82.30
2022-10-23T11:35:16.710Z,82.70
2022-10-23T11:36:16.691Z,82.90
2022-10-23T11:37:16.709Z,82.50
2022-10-23T11:38:16.672Z,82.50
2022-10-23T11:39:16.671Z,82.50
2022-10-23T11:40:16.655Z,82.90
2022-10-23T11:41:18.908Z,82.40
2022-10-23T11:42:16.653Z,83.11
2022-10-23T11:43:16.624Z,83.01
2022-10-23T11:44:16.611Z,82.50
2022-10-23T11:45:16.605Z,82.70
2022-10-23T11:46:16.604Z,82.70
2022-10-23T11:47:16.602Z,82.81
2022-10-23T11:48:16.573Z,82.81
2022-10-23T11:49:16.559Z,82.20
2022-10-23T11:50:16.556Z,82.40
2022-10-23T11:51:16.536Z,82.50
2022-10-23T11:52:16.548Z,82.81
2022-10-23T11:53:17.038Z,82.60
2022-10-23T11:54:16.508Z,82.81
2022-10-23T11:55:16.489Z,82.90
2022-10-23T11:56:16.501Z,82.60
2022-10-23T11:57:16.491Z,82.60
2022-10-23T11:58:16.467Z,82.60
2022-10-23T11:59:16.450Z,82.81
2022-10-23T12:00:16.447Z,82.50
2022-10-23T12:01:16.507Z,82.90
2022-10-23T12:02:16.484Z,82.10
2022-10-23T12:03:16.411Z,82.10
2022-10-23T12:04:16.402Z,82.50
2022-10-23T12:05:16.391Z,82.36
2022-10-23T12:06:16.382Z,82.87
2022-10-23T12:07:16.381Z,82.87
2022-10-23T12:08:16.361Z,82.87
2022-10-23T12:09:16.343Z,82.56
2022-10-23T12:10:16.334Z,82.67
2022-10-23T12:11:16.315Z,82.36
2022-10-23T12:12:16.334Z,82.56
2022-10-23T12:13:16.314Z,82.46
2022-10-23T12:14:16.299Z,81.96
2022-10-23T12:15:16.284Z,81.85
2022-10-23T12:16:16.277Z,81.65
2022-10-23T12:17:16.275Z,82.06
2022-10-23T12:18:16.258Z,82.16
2022-10-23T12:19:16.236Z,82.06
2022-10-23T12:20:16.227Z,82.16
2022-10-23T12:21:16.217Z,82.06
2022-10-23T12:22:16.234Z,82.36
2022-10-23T12:23:16.197Z,82.26
2022-10-23T12:24:16.188Z,82.26
2022-10-23T12:25:16.169Z,82.46
2022-10-23T12:26:16.161Z,82.46
2022-10-23T12:27:16.167Z,82.76
2022-10-23T12:28:16.142Z,82.97
2022-10-23T12:29:16.121Z,82.97
2022-10-23T12:30:16.131Z,82.76
2022-10-23T12:31:16.102Z,82.76
2022-10-23T12:32:16.129Z,82.67
2022-10-23T12:33:16.083Z,82.76
2022-10-23T12:34:16.075Z,82.76
2022-10-23T12:35:16.064Z,82.87
2022-10-23T12:36:16.054Z,83.17
2022-10-23T12:37:16.063Z,83.37
2022-10-23T12:38:16.034Z,83.37
2022-10-23T12:40:16.013Z,83.17
2022-10-23T12:41:16.005Z,83.37
2022-10-23T12:42:16.015Z,83.47
2022-10-23T12:43:15.976Z,83.88
2022-10-23T12:44:15.969Z,83.58
2022-10-23T12:45:15.947Z,83.58
2022-10-23T12:46:17.722Z,83.68
2022-10-23T12:47:15.949Z,83.98
2022-10-23T12:48:15.926Z,84.08
2022-10-23T12:49:15.911Z,84.08
2022-10-23T12:50:15.907Z,84.08
2022-10-23T12:51:15.889Z,83.68
2022-10-23T12:52:15.935Z,83.37
2022-10-23T12:53:15.868Z,83.58
2022-10-23T12:54:15.871Z,83.78
2022-10-23T12:55:15.849Z,83.88
2022-10-23T12:56:15.841Z,83.68
2022-10-23T12:57:15.842Z,83.88
2022-10-23T12:58:15.820Z,83.88